Flag for Australia

Past Weather in 38°26'43.9"S, 145°14'27.6"E, Australia — Yesterday and Last 2 Weeks

Currently: 64 °F. Clear. (Weather station: Melbourne Airport, Australia). See more current weather

Past Weather in 38°26'43.9"S, 145°14'27.6"E — Graph

°F

38°26'43.9"S, 145°14'27.6"E Temperature Yesterday

Maximum temperature yesterday: 86 °F (at 1:00 pm)
Minimum temperature yesterday: 54 °F (at 4:30 am)
Average temperature yesterday: 72 °F

High & Low Weather Summary for the Past Weeks

 TemperatureHumidityPressure
High86 °F (Nov 30, 1:00 pm)100% (Nov 22, 1:30 am)30.24 "Hg (Nov 22, 1:30 am)
Low43 °F (Nov 16, 2:00 am)20% (Nov 30, 3:00 pm)29.62 "Hg (Nov 18, 7:00 pm)
Average60 °F70%30.02 "Hg
* Reported Nov 16 1:00 am — Dec 1 1:00 am, 38°26'43.9"S, 145°14'27.6"E. Weather by CustomWeather, © 2021

Note: Actual official high and low records may vary slightly from our data, if they occured in-between our weather recording intervals... More about our weather records

38°26'43.9"S, 145°14'27.6"E Weather History for the Previous 24 Hours

Scroll right to see more
 ConditionsComfort  
Time TempWeatherWind HumidityBarometerVisibility
1:00 am
Wed, Dec 1
66 °FClear.14 mph56%29.86 "Hg10 mi
12:30 am64 °FClear.8 mph60%29.86 "Hg10 mi
12:00 am66 °FClear.6 mph56%29.86 "Hg10 mi
11:30 pm
Tue, Nov 30
68 °FClear.9 mph49%29.86 "Hg10 mi
11:00 pm70 °FClear.12 mph46%29.86 "Hg10 mi
10:30 pm70 °FClear.6 mph46%29.89 "Hg10 mi
10:00 pm70 °FClear.7 mph53%29.86 "Hg10 mi
9:30 pm70 °FClear.7 mph53%29.86 "Hg10 mi
9:00 pm75 °FClear.6 mph39%29.86 "Hg10 mi
8:30 pm77 °FClear.5 mph36%29.86 "Hg10 mi
8:00 pm81 °FSunny.6 mph34%29.86 "Hg10 mi
7:00 pm84 °FSunny.8 mph25%29.83 "Hg10 mi
6:30 pm86 °FSunny.8 mph24%29.83 "Hg10 mi
6:00 pm86 °FPassing clouds.10 mph24%29.83 "HgN/A
5:30 pm86 °FSunny.9 mph24%29.83 "Hg10 mi
5:00 pm86 °FSunny.8 mph24%29.86 "Hg10 mi
4:30 pm86 °FPassing clouds.6 mph24%29.86 "HgN/A
4:00 pm86 °FSunny.13 mph24%29.86 "Hg10 mi
3:30 pm86 °FPassing clouds.8 mph22%29.86 "HgN/A
3:00 pm86 °FSunny.10 mph20%29.89 "Hg10 mi
2:30 pm86 °FSunny.8 mph25%29.89 "Hg10 mi
2:00 pm86 °FPassing clouds.12 mph24%29.89 "HgN/A
1:00 pm86 °FPassing clouds.8 mph27%29.92 "HgN/A
12:30 pm84 °FSunny.13 mph29%29.92 "Hg10 mi
12:00 pm84 °FSunny.13 mph27%29.92 "Hg10 mi
11:30 am84 °FSunny.15 mph31%29.95 "Hg10 mi
11:00 am82 °FSunny.17 mph37%29.95 "Hg10 mi
10:30 am81 °FSunny.20 mph39%29.95 "Hg10 mi
10:00 am81 °FSunny.21 mph42%29.95 "Hg10 mi
9:30 am79 °FSunny.21 mph42%29.95 "Hg10 mi
9:00 am75 °FSunny.20 mph47%29.98 "Hg10 mi
8:30 am73 °FSunny.18 mph50%29.98 "Hg10 mi
8:00 am70 °FSunny.16 mph53%29.95 "Hg10 mi
7:30 am66 °FSunny.12 mph60%29.98 "Hg10 mi
7:00 am59 °FSunny.1 mph77%29.95 "Hg10 mi
6:30 am59 °FSunny.7 mph72%29.95 "Hg10 mi
6:00 am55 °FSunny.8 mph77%29.95 "Hg10 mi
5:30 am54 °FClear.6 mph94%29.95 "Hg10 mi
5:00 am55 °FClear.7 mph88%29.95 "Hg10 mi
4:30 am54 °FClear.No wind88%29.95 "Hg10 mi
4:00 am57 °FClear.8 mph82%29.95 "Hg10 mi
3:30 am57 °FClear.8 mph82%29.95 "Hg10 mi
3:00 am57 °FClear.10 mph82%29.95 "Hg10 mi
2:30 am59 °FClear.9 mph77%29.95 "Hg10 mi
2:00 am57 °FClear.9 mph82%29.95 "Hg10 mi
Weather by CustomWeather, © 2021

See weather overview